createdAt,value
2018-07-30T00:00:38.361Z,25.04
2018-07-30T00:01:38.257Z,25.11
2018-07-30T00:03:31.600Z,25.12
2018-07-30T00:04:31.516Z,25.06
2018-07-30T00:06:24.885Z,25.03
2018-07-30T00:07:24.775Z,24.96
2018-07-30T00:09:17.642Z,25.08
2018-07-30T00:10:17.529Z,25.03
2018-07-30T00:12:10.400Z,25.06
2018-07-30T00:13:10.303Z,25.03
2018-07-30T00:15:03.147Z,24.94
2018-07-30T00:16:03.033Z,24.84
2018-07-30T00:17:55.880Z,24.79
2018-07-30T00:18:55.785Z,24.84
2018-07-30T00:20:48.609Z,24.85
2018-07-30T00:21:48.522Z,24.89
2018-07-30T00:23:41.377Z,24.90
2018-07-30T00:24:41.270Z,24.84
2018-07-30T00:26:34.123Z,24.85
2018-07-30T00:27:34.025Z,24.79
2018-07-30T00:29:26.916Z,24.97
2018-07-30T00:30:26.781Z,24.94
2018-07-30T00:32:19.655Z,24.99
2018-07-30T00:33:19.525Z,24.89
2018-07-30T00:35:12.805Z,24.81
2018-07-30T00:36:12.683Z,24.89
2018-07-30T00:38:05.554Z,24.75
2018-07-30T00:39:05.439Z,24.68
2018-07-30T00:40:58.264Z,24.63
2018-07-30T00:41:58.188Z,24.71
2018-07-30T00:43:51.034Z,24.65
2018-07-30T00:44:50.958Z,24.63
2018-07-30T00:46:44.180Z,24.53
2018-07-30T00:47:44.091Z,24.48
2018-07-30T00:49:36.962Z,24.52
2018-07-30T00:50:36.906Z,24.65
2018-07-30T00:52:29.898Z,24.56
2018-07-30T00:53:29.825Z,24.53
2018-07-30T00:55:22.671Z,24.59
2018-07-30T00:56:22.572Z,24.68
2018-07-30T00:58:15.896Z,24.63
2018-07-30T00:59:15.803Z,24.63
2018-07-30T01:01:08.694Z,24.52
2018-07-30T01:02:08.555Z,24.56
2018-07-30T01:04:01.388Z,24.55
2018-07-30T01:05:01.305Z,24.56
2018-07-30T01:06:54.743Z,24.51
2018-07-30T01:07:54.064Z,24.40
2018-07-30T01:09:47.305Z,24.48
2018-07-30T01:10:47.207Z,24.43
2018-07-30T01:12:40.167Z,24.48
2018-07-30T01:13:40.082Z,24.41
2018-07-30T01:15:32.910Z,24.38
2018-07-30T01:16:32.811Z,24.45
2018-07-30T01:18:25.731Z,24.44
2018-07-30T01:19:25.563Z,24.34
2018-07-30T01:21:18.403Z,24.34
2018-07-30T01:22:18.317Z,24.29
2018-07-30T01:24:11.163Z,24.31
2018-07-30T01:25:11.062Z,24.36
2018-07-30T01:27:03.901Z,24.28
2018-07-30T01:28:03.841Z,24.25
2018-07-30T01:29:56.658Z,24.25
2018-07-30T01:30:56.558Z,24.21
2018-07-30T01:32:49.429Z,24.31
2018-07-30T01:33:49.306Z,24.38
2018-07-30T01:35:42.159Z,24.25
2018-07-30T01:36:42.060Z,24.37
2018-07-30T01:38:34.927Z,24.36
2018-07-30T01:39:34.835Z,24.26
2018-07-30T01:41:27.772Z,24.18
2018-07-30T01:42:27.560Z,24.19
2018-07-30T01:44:20.418Z,24.16
2018-07-30T01:45:20.399Z,24.15
2018-07-30T01:47:13.157Z,24.11
2018-07-30T01:48:13.080Z,23.98
2018-07-30T01:50:05.931Z,24.01
2018-07-30T01:51:05.813Z,24.08
2018-07-30T01:52:58.650Z,24.13
2018-07-30T01:53:58.563Z,24.00
2018-07-30T01:55:51.416Z,23.98
2018-07-30T01:56:51.316Z,23.96
2018-07-30T01:58:44.148Z,23.92
2018-07-30T01:59:44.054Z,23.94
2018-07-30T02:01:36.902Z,23.89
2018-07-30T02:02:36.801Z,23.86
2018-07-30T02:04:29.646Z,23.78
2018-07-30T02:05:29.565Z,23.74
2018-07-30T02:07:22.818Z,23.74
2018-07-30T02:08:22.718Z,23.64
2018-07-30T02:10:15.571Z,23.66
2018-07-30T02:11:15.472Z,23.67
2018-07-30T02:13:08.293Z,23.61
2018-07-30T02:14:08.260Z,23.59
2018-07-30T02:16:01.103Z,23.48
2018-07-30T02:17:00.978Z,23.54
2018-07-30T02:18:53.798Z,23.52
2018-07-30T02:19:53.716Z,23.48
2018-07-30T02:21:46.591Z,23.31
2018-07-30T02:22:46.452Z,23.31
2018-07-30T02:24:39.328Z,23.36
2018-07-30T02:25:39.216Z,23.31
2018-07-30T02:27:32.092Z,23.26
2018-07-30T02:28:31.962Z,23.23
2018-07-30T02:30:24.848Z,23.22
2018-07-30T02:31:24.939Z,23.11
2018-07-30T02:33:17.594Z,23.18
2018-07-30T02:34:17.562Z,23.14
2018-07-30T02:36:10.324Z,23.23
2018-07-30T02:37:10.231Z,23.34
2018-07-30T02:39:03.069Z,23.45
2018-07-30T02:40:02.962Z,23.59
2018-07-30T02:41:55.877Z,23.56
2018-07-30T02:42:55.734Z,23.66
2018-07-30T02:44:48.572Z,23.55
2018-07-30T02:45:48.456Z,23.71
2018-07-30T02:47:41.354Z,23.70
2018-07-30T02:48:41.218Z,23.61
2018-07-30T02:50:34.061Z,23.61
2018-07-30T02:51:33.989Z,23.56
2018-07-30T02:53:26.806Z,23.56
2018-07-30T02:54:26.711Z,23.59
2018-07-30T02:56:19.540Z,23.41
2018-07-30T02:57:19.448Z,23.42
2018-07-30T02:59:12.315Z,23.36
2018-07-30T03:00:12.214Z,23.36
2018-07-30T03:02:05.077Z,23.33
2018-07-30T03:03:04.969Z,23.29
2018-07-30T03:04:57.842Z,23.25
2018-07-30T03:05:57.710Z,23.34
2018-07-30T03:07:50.573Z,23.23
2018-07-30T03:08:50.466Z,23.22
2018-07-30T03:10:43.307Z,23.11
2018-07-30T03:11:43.211Z,23.07
2018-07-30T03:13:36.058Z,23.06
2018-07-30T03:14:35.957Z,22.93
2018-07-30T03:16:28.809Z,22.83
2018-07-30T03:17:28.721Z,22.85
2018-07-30T03:19:21.562Z,22.89
2018-07-30T03:20:21.454Z,22.86
2018-07-30T03:22:14.338Z,22.85
2018-07-30T03:23:14.204Z,22.73
2018-07-30T03:25:07.038Z,22.74
2018-07-30T03:26:06.947Z,22.71
2018-07-30T03:28:00.335Z,22.70
2018-07-30T03:29:00.153Z,22.62
2018-07-30T03:30:52.977Z,22.55
2018-07-30T03:31:52.869Z,22.48
2018-07-30T03:33:45.723Z,22.46
2018-07-30T03:34:45.610Z,22.37
2018-07-30T03:36:38.644Z,22.36
2018-07-30T03:37:38.388Z,22.28
2018-07-30T03:39:31.199Z,22.03
2018-07-30T03:40:31.117Z,22.06
2018-07-30T03:42:24.561Z,22.03
2018-07-30T03:43:24.375Z,21.94
2018-07-30T03:45:17.251Z,21.81
2018-07-30T03:46:17.158Z,21.78
2018-07-30T03:48:09.974Z,21.69
2018-07-30T03:49:09.888Z,21.71
2018-07-30T03:51:02.823Z,21.73
2018-07-30T03:52:02.622Z,21.65
2018-07-30T03:53:55.527Z,21.65
2018-07-30T03:54:55.370Z,21.48
2018-07-30T03:56:48.232Z,21.41
2018-07-30T03:57:48.120Z,21.29
2018-07-30T03:59:40.984Z,21.28
2018-07-30T04:00:40.903Z,21.18
2018-07-30T04:02:33.742Z,21.22
2018-07-30T04:03:33.617Z,21.22
2018-07-30T04:05:26.469Z,21.19
2018-07-30T04:06:26.387Z,21.26
2018-07-30T04:08:19.213Z,21.25
2018-07-30T04:09:19.126Z,21.16
2018-07-30T04:11:11.978Z,21.16
2018-07-30T04:12:11.867Z,21.10
2018-07-30T04:14:04.736Z,21.20
2018-07-30T04:15:04.626Z,21.16
2018-07-30T04:16:57.470Z,21.04
2018-07-30T04:17:57.370Z,21.07
2018-07-30T04:19:50.215Z,20.95
2018-07-30T04:20:50.124Z,21.04
2018-07-30T04:22:43.370Z,20.97
2018-07-30T04:23:43.273Z,21.00
2018-07-30T04:25:36.234Z,21.07
2018-07-30T04:26:36.123Z,21.01
2018-07-30T04:28:29.067Z,21.01
2018-07-30T04:29:28.989Z,21.05
2018-07-30T04:31:21.879Z,20.98
2018-07-30T04:32:21.741Z,20.95
2018-07-30T04:34:14.642Z,20.92
2018-07-30T04:35:14.488Z,20.89
2018-07-30T04:37:07.325Z,20.93
2018-07-30T04:38:07.226Z,20.88
2018-07-30T04:40:00.115Z,20.92
2018-07-30T04:40:59.975Z,20.92
2018-07-30T04:42:53.232Z,20.93
2018-07-30T04:43:53.274Z,20.85
2018-07-30T04:45:46.029Z,20.90
2018-07-30T04:46:45.879Z,20.83
2018-07-30T04:48:38.765Z,20.92
2018-07-30T04:49:38.632Z,20.89
2018-07-30T04:51:31.481Z,20.95
2018-07-30T04:52:31.400Z,20.83
2018-07-30T04:54:24.233Z,20.88
2018-07-30T04:55:24.128Z,20.88
2018-07-30T04:57:16.969Z,20.86
2018-07-30T04:58:16.877Z,20.86
2018-07-30T05:00:09.747Z,20.83
2018-07-30T05:01:09.631Z,20.90
2018-07-30T05:03:02.485Z,20.88
2018-07-30T05:04:02.385Z,20.85
2018-07-30T05:05:55.236Z,20.86
2018-07-30T05:06:55.134Z,20.85
2018-07-30T05:08:47.998Z,20.90
2018-07-30T05:09:47.884Z,20.97
2018-07-30T05:11:40.719Z,20.93
2018-07-30T05:12:40.631Z,20.97
2018-07-30T05:14:33.481Z,20.95
2018-07-30T05:15:33.379Z,20.98
2018-07-30T05:17:26.216Z,21.07
2018-07-30T05:18:26.130Z,21.11
2018-07-30T05:20:18.982Z,21.18
2018-07-30T05:21:18.884Z,21.22
2018-07-30T05:23:11.731Z,21.25
2018-07-30T05:24:11.632Z,21.32
2018-07-30T05:26:04.501Z,21.34
2018-07-30T05:27:04.370Z,21.43
2018-07-30T05:28:57.255Z,21.58
2018-07-30T05:29:57.150Z,21.51
2018-07-30T05:31:50.999Z,21.66
2018-07-30T05:32:49.908Z,21.71
2018-07-30T05:34:42.734Z,21.81
2018-07-30T05:35:42.635Z,21.91
2018-07-30T05:37:35.581Z,21.98
2018-07-30T05:38:35.387Z,22.00
2018-07-30T05:40:28.226Z,22.09
2018-07-30T05:41:28.131Z,22.09
2018-07-30T05:43:20.961Z,22.27
2018-07-30T05:44:20.893Z,22.30
2018-07-30T05:46:13.739Z,22.38
2018-07-30T05:47:13.628Z,22.37
2018-07-30T05:49:06.481Z,22.58
2018-07-30T05:50:06.382Z,22.46
2018-07-30T05:51:59.210Z,22.59
2018-07-30T05:52:59.129Z,22.74
2018-07-30T05:54:51.974Z,22.80
2018-07-30T05:55:51.876Z,22.81
2018-07-30T05:57:44.728Z,22.99
2018-07-30T05:58:44.634Z,23.04
2018-07-30T06:00:37.491Z,23.10
2018-07-30T06:01:37.368Z,23.17
2018-07-30T06:03:30.214Z,23.36
2018-07-30T06:04:30.131Z,23.42
2018-07-30T06:06:22.973Z,23.54
2018-07-30T06:07:22.876Z,23.69
2018-07-30T06:09:16.651Z,23.73
2018-07-30T06:10:16.547Z,23.96
2018-07-30T06:12:09.417Z,24.15
2018-07-30T06:13:09.302Z,24.18
2018-07-30T06:15:02.139Z,24.43
2018-07-30T06:16:02.054Z,24.40
2018-07-30T06:17:54.905Z,24.60
2018-07-30T06:18:54.793Z,24.66
2018-07-30T06:20:47.660Z,24.86
2018-07-30T06:21:47.558Z,24.91
2018-07-30T06:23:40.384Z,24.85
2018-07-30T06:24:40.292Z,24.86
2018-07-30T06:26:33.252Z,24.97
2018-07-30T06:27:33.056Z,24.96
2018-07-30T06:29:25.895Z,25.00
2018-07-30T06:30:25.796Z,25.03
2018-07-30T06:32:18.669Z,25.06
2018-07-30T06:33:18.552Z,25.11
2018-07-30T06:35:11.393Z,25.09
2018-07-30T06:36:11.291Z,25.04
2018-07-30T06:38:06.645Z,25.11
2018-07-30T06:39:06.166Z,25.23
2018-07-30T06:40:59.565Z,25.37
2018-07-30T06:41:59.466Z,25.36
2018-07-30T06:43:54.080Z,25.46
2018-07-30T06:44:54.061Z,25.43
2018-07-30T06:46:47.331Z,25.52
2018-07-30T06:47:47.250Z,25.51
2018-07-30T06:49:40.580Z,25.52
2018-07-30T06:50:40.500Z,25.59
2018-07-30T06:52:33.331Z,25.68
2018-07-30T06:53:33.209Z,25.77
2018-07-30T06:55:26.064Z,25.88
2018-07-30T06:56:25.965Z,25.90
2018-07-30T06:58:18.839Z,25.98
2018-07-30T06:59:18.709Z,26.10
2018-07-30T07:01:11.549Z,26.08
2018-07-30T07:02:11.474Z,26.20
2018-07-30T07:04:04.321Z,26.46
2018-07-30T07:05:04.210Z,26.43
2018-07-30T07:06:57.589Z,26.56
2018-07-30T07:07:56.971Z,26.65
2018-07-30T07:09:49.799Z,26.75
2018-07-30T07:10:49.718Z,26.83
2018-07-30T07:12:42.558Z,27.00
2018-07-30T07:13:42.464Z,27.13
2018-07-30T07:15:35.293Z,27.31
2018-07-30T07:16:35.253Z,27.27
2018-07-30T07:18:28.083Z,27.40
2018-07-30T07:19:27.956Z,27.45
2018-07-30T07:21:20.852Z,27.54
2018-07-30T07:22:20.730Z,27.72
2018-07-30T07:24:13.571Z,27.72
2018-07-30T07:25:13.458Z,27.80
2018-07-30T07:27:06.384Z,27.93
2018-07-30T07:28:06.229Z,27.94
2018-07-30T07:29:59.060Z,28.12
2018-07-30T07:30:58.967Z,28.10
2018-07-30T07:32:51.875Z,28.20
2018-07-30T07:33:51.730Z,28.32
2018-07-30T07:35:44.556Z,28.28
2018-07-30T07:36:44.472Z,28.40
2018-07-30T07:38:37.878Z,28.38
2018-07-30T07:39:37.766Z,28.46
2018-07-30T07:41:30.594Z,28.68
2018-07-30T07:42:30.495Z,28.71
2018-07-30T07:44:23.318Z,28.64
2018-07-30T07:45:23.223Z,28.64
2018-07-30T07:47:16.069Z,28.66
2018-07-30T07:48:15.987Z,28.65
2018-07-30T07:50:08.868Z,28.62
2018-07-30T07:51:08.758Z,28.59
2018-07-30T07:53:01.572Z,28.75
2018-07-30T07:54:01.471Z,28.68
2018-07-30T07:55:54.321Z,28.72
2018-07-30T07:56:54.228Z,28.68
2018-07-30T07:58:47.055Z,28.83
2018-07-30T07:59:46.983Z,28.90
2018-07-30T08:01:39.857Z,28.93
2018-07-30T08:02:39.745Z,29.03
2018-07-30T08:04:32.587Z,29.15
2018-07-30T08:05:32.469Z,29.21
2018-07-30T08:07:25.361Z,28.98
2018-07-30T08:08:25.243Z,28.94
2018-07-30T08:10:18.081Z,28.81
2018-07-30T08:11:17.987Z,28.96
2018-07-30T08:13:10.801Z,28.96
2018-07-30T08:14:10.729Z,28.84
2018-07-30T08:16:03.570Z,28.87
2018-07-30T08:17:03.477Z,28.80
2018-07-30T08:18:56.327Z,28.86
2018-07-30T08:19:56.213Z,28.87
2018-07-30T08:21:49.067Z,28.90
2018-07-30T08:22:48.964Z,28.84
2018-07-30T08:24:41.796Z,28.90
2018-07-30T08:25:41.711Z,28.89
2018-07-30T08:27:34.567Z,28.84
2018-07-30T08:28:34.503Z,28.75
2018-07-30T08:30:27.357Z,28.77
2018-07-30T08:31:27.220Z,28.84
2018-07-30T08:33:20.582Z,28.83
2018-07-30T08:34:20.485Z,28.74
2018-07-30T08:36:13.307Z,28.72
2018-07-30T08:37:13.299Z,28.74
2018-07-30T08:39:06.084Z,28.68
2018-07-30T08:40:06.017Z,28.79
2018-07-30T08:41:58.861Z,28.64
2018-07-30T08:42:58.729Z,28.69
2018-07-30T08:44:51.562Z,28.65
2018-07-30T08:45:51.475Z,28.80
2018-07-30T08:47:44.330Z,28.90
2018-07-30T08:48:44.238Z,28.96
2018-07-30T08:50:37.061Z,28.94
2018-07-30T08:51:36.974Z,29.02
2018-07-30T08:53:29.848Z,29.04
2018-07-30T08:54:29.720Z,29.04
2018-07-30T08:56:22.594Z,29.04
2018-07-30T08:57:22.469Z,29.04
2018-07-30T08:59:15.361Z,29.03
2018-07-30T09:00:15.239Z,29.03
2018-07-30T09:02:08.051Z,29.03
2018-07-30T09:03:07.988Z,28.90
2018-07-30T09:05:00.840Z,28.91
2018-07-30T09:06:00.715Z,28.94
2018-07-30T09:07:53.553Z,29.07
2018-07-30T09:08:53.480Z,29.03
2018-07-30T09:10:46.726Z,29.27
2018-07-30T09:11:46.625Z,29.40
2018-07-30T09:13:39.875Z,29.61
2018-07-30T09:14:39.807Z,29.77
2018-07-30T09:16:32.715Z,29.95
2018-07-30T09:17:32.542Z,30.11
2018-07-30T09:19:25.400Z,30.29
2018-07-30T09:20:25.287Z,30.40
2018-07-30T09:22:18.144Z,30.51
2018-07-30T09:23:18.038Z,30.53
2018-07-30T09:25:10.901Z,30.58
2018-07-30T09:26:10.789Z,30.51
2018-07-30T09:28:03.628Z,30.51
2018-07-30T09:29:03.538Z,30.43
2018-07-30T09:30:56.388Z,30.20
2018-07-30T09:31:56.325Z,30.24
2018-07-30T09:33:49.122Z,30.55
2018-07-30T09:34:49.037Z,30.65
2018-07-30T09:36:41.887Z,30.71
2018-07-30T09:37:41.805Z,30.70
2018-07-30T09:39:39.438Z,30.68
2018-07-30T09:40:38.058Z,30.64
2018-07-30T09:42:30.082Z,30.73
2018-07-30T09:43:30.023Z,30.65
2018-07-30T09:45:22.801Z,30.55
2018-07-30T09:46:23.045Z,30.39
2018-07-30T09:48:15.556Z,30.32
2018-07-30T09:49:15.445Z,30.29
2018-07-30T09:51:08.311Z,30.14
2018-07-30T09:52:08.204Z,30.11
2018-07-30T09:54:01.046Z,30.48
2018-07-30T09:55:00.945Z,30.64
2018-07-30T09:56:53.828Z,30.93
2018-07-30T09:57:53.692Z,30.90
2018-07-30T09:59:46.533Z,31.10
2018-07-30T10:00:46.447Z,31.12
2018-07-30T10:02:39.302Z,31.20
2018-07-30T10:03:39.199Z,31.15
2018-07-30T10:05:32.043Z,31.22
2018-07-30T10:06:31.960Z,31.29
2018-07-30T10:08:24.794Z,31.68
2018-07-30T10:09:24.699Z,31.78
2018-07-30T10:11:17.529Z,31.97
2018-07-30T10:12:17.442Z,32.13
2018-07-30T10:14:10.300Z,32.01
2018-07-30T10:15:10.204Z,32.20
2018-07-30T10:17:03.140Z,32.31
2018-07-30T10:18:03.141Z,32.27
2018-07-30T10:19:56.400Z,32.27
2018-07-30T10:20:56.316Z,32.33
2018-07-30T10:22:49.286Z,32.63
2018-07-30T10:23:49.188Z,32.69
2018-07-30T10:25:42.015Z,33.07
2018-07-30T10:26:41.917Z,33.20
2018-07-30T10:28:34.759Z,33.44
2018-07-30T10:29:34.659Z,33.49
2018-07-30T10:31:27.497Z,33.29
2018-07-30T10:32:27.412Z,33.27
2018-07-30T10:34:20.843Z,33.22
2018-07-30T10:35:20.282Z,33.27
2018-07-30T10:37:13.530Z,33.07
2018-07-30T10:38:13.565Z,33.14
2018-07-30T10:40:06.796Z,33.27
2018-07-30T10:41:06.685Z,33.20
2018-07-30T10:43:00.040Z,33.06
2018-07-30T10:43:59.944Z,33.10
2018-07-30T10:45:52.804Z,32.95
2018-07-30T10:46:52.713Z,33.14
2018-07-30T10:48:45.553Z,33.66
2018-07-30T10:49:45.440Z,33.92
2018-07-30T10:51:38.307Z,34.20
2018-07-30T10:52:38.204Z,34.22
2018-07-30T10:54:31.039Z,34.19
2018-07-30T10:55:30.940Z,34.10
2018-07-30T10:57:24.299Z,33.84
2018-07-30T10:58:24.212Z,33.74
2018-07-30T11:00:17.056Z,33.66
2018-07-30T11:01:16.963Z,33.76
2018-07-30T11:03:09.812Z,33.81
2018-07-30T11:04:09.708Z,33.86
2018-07-30T11:06:02.570Z,34.15
2018-07-30T11:07:02.464Z,34.35
2018-07-30T11:08:55.301Z,34.50
2018-07-30T11:09:55.228Z,34.53
2018-07-30T11:11:48.051Z,33.95
2018-07-30T11:12:47.961Z,33.51
2018-07-30T11:14:40.820Z,33.24
2018-07-30T11:15:40.702Z,33.13
2018-07-30T11:17:33.635Z,32.83
2018-07-30T11:18:33.553Z,32.70
2018-07-30T11:20:26.406Z,32.54
2018-07-30T11:21:26.324Z,32.63
2018-07-30T11:23:19.157Z,32.45
2018-07-30T11:24:19.083Z,32.27
2018-07-30T11:26:11.920Z,32.17
2018-07-30T11:27:11.806Z,32.20
2018-07-30T11:29:04.644Z,31.90
2018-07-30T11:30:04.560Z,31.81
2018-07-30T11:31:57.461Z,31.78
2018-07-30T11:32:57.300Z,31.82
2018-07-30T11:34:50.742Z,31.89
2018-07-30T11:35:50.096Z,31.89
2018-07-30T11:37:42.889Z,32.05
2018-07-30T11:38:42.807Z,32.04
2018-07-30T11:40:35.661Z,32.05
2018-07-30T11:41:35.561Z,31.89
2018-07-30T11:43:28.407Z,32.04
2018-07-30T11:44:28.320Z,32.08
2018-07-30T11:46:21.150Z,32.11
2018-07-30T11:47:21.070Z,32.09
2018-07-30T11:49:13.992Z,32.35
2018-07-30T11:50:13.935Z,32.60
2018-07-30T11:52:07.869Z,32.95
2018-07-30T11:53:07.771Z,33.16
2018-07-30T11:55:00.618Z,33.07
2018-07-30T11:56:00.532Z,33.10
2018-07-30T11:57:53.454Z,33.47
2018-07-30T11:58:53.372Z,33.45
2018-07-30T12:00:46.245Z,33.36
2018-07-30T12:01:46.156Z,33.44
2018-07-30T12:03:39.059Z,33.48
2018-07-30T12:04:38.978Z,33.45
2018-07-30T12:06:31.946Z,33.39
2018-07-30T12:07:31.851Z,33.13
2018-07-30T12:09:24.682Z,33.04
2018-07-30T12:10:24.581Z,32.75
2018-07-30T12:12:17.426Z,32.58
2018-07-30T12:13:17.326Z,32.57
2018-07-30T12:15:10.280Z,32.63
2018-07-30T12:16:10.190Z,32.79
2018-07-30T12:18:03.111Z,33.10
2018-07-30T12:19:03.031Z,33.07
2018-07-30T12:20:55.909Z,33.45
2018-07-30T12:21:55.876Z,33.41
2018-07-30T12:23:48.729Z,33.51
2018-07-30T12:24:48.631Z,33.48
2018-07-30T12:26:41.478Z,33.29
2018-07-30T12:27:41.382Z,32.98
2018-07-30T12:29:34.338Z,32.65
2018-07-30T12:30:34.287Z,32.64
2018-07-30T12:32:27.082Z,32.61
2018-07-30T12:33:27.016Z,32.63
2018-07-30T12:35:19.883Z,32.76
2018-07-30T12:36:19.738Z,32.85
2018-07-30T12:38:13.104Z,32.82
2018-07-30T12:39:13.016Z,32.77
2018-07-30T12:41:06.797Z,32.53
2018-07-30T12:42:06.672Z,32.20
2018-07-30T12:43:59.521Z,32.09
2018-07-30T12:44:59.519Z,31.98
2018-07-30T12:46:52.280Z,32.24
2018-07-30T12:47:52.171Z,32.27
2018-07-30T12:49:45.581Z,32.77
2018-07-30T12:50:45.461Z,33.14
2018-07-30T12:52:39.295Z,33.42
2018-07-30T12:53:39.224Z,33.49
2018-07-30T12:55:32.718Z,33.45
2018-07-30T12:56:32.560Z,33.52
2018-07-30T12:58:25.533Z,33.42
2018-07-30T12:59:25.413Z,33.51
2018-07-30T13:01:18.362Z,33.58
2018-07-30T13:02:18.268Z,33.74
2018-07-30T13:04:11.235Z,33.91
2018-07-30T13:05:11.134Z,33.88
2018-07-30T13:07:04.990Z,33.71
2018-07-30T13:08:04.895Z,33.71
2018-07-30T13:09:58.293Z,33.81
2018-07-30T13:10:57.776Z,33.91
2018-07-30T13:12:50.688Z,34.11
2018-07-30T13:13:50.744Z,34.10
2018-07-30T13:15:43.549Z,34.37
2018-07-30T13:16:43.445Z,34.30
2018-07-30T13:18:36.386Z,34.45
2018-07-30T13:19:36.315Z,34.55
2018-07-30T13:21:29.247Z,34.63
2018-07-30T13:22:29.152Z,34.48
2018-07-30T13:24:22.111Z,34.76
2018-07-30T13:25:22.001Z,34.73
2018-07-30T13:27:14.880Z,34.53
2018-07-30T13:28:14.852Z,34.47
2018-07-30T13:30:07.616Z,34.38
2018-07-30T13:31:07.503Z,34.34
2018-07-30T13:33:00.339Z,34.28
2018-07-30T13:34:00.264Z,34.40
2018-07-30T13:35:53.184Z,34.42
2018-07-30T13:36:53.163Z,34.50
2018-07-30T13:38:46.353Z,34.52
2018-07-30T13:39:46.283Z,34.40
2018-07-30T13:41:39.146Z,34.15
2018-07-30T13:42:39.049Z,33.92
2018-07-30T13:44:32.453Z,33.60
2018-07-30T13:45:32.290Z,33.55
2018-07-30T13:47:25.233Z,33.20
2018-07-30T13:48:25.128Z,33.12
2018-07-30T13:50:18.071Z,33.17
2018-07-30T13:51:17.980Z,33.13
2018-07-30T13:53:11.045Z,33.12
2018-07-30T13:54:10.994Z,33.16
2018-07-30T13:56:03.868Z,33.20
2018-07-30T13:57:03.798Z,33.19
2018-07-30T13:58:56.746Z,33.07
2018-07-30T13:59:56.683Z,33.12
2018-07-30T14:01:49.501Z,33.06
2018-07-30T14:02:49.390Z,33.24
2018-07-30T14:04:42.398Z,33.37
2018-07-30T14:05:42.247Z,33.39
2018-07-30T14:07:35.202Z,33.44
2018-07-30T14:08:35.096Z,33.26
2018-07-30T14:10:28.982Z,33.47
2018-07-30T14:11:28.875Z,33.41
2018-07-30T14:13:21.833Z,33.36
2018-07-30T14:14:21.717Z,33.42
2018-07-30T14:16:15.074Z,33.44
2018-07-30T14:17:14.996Z,33.49
2018-07-30T14:19:07.930Z,33.51
2018-07-30T14:20:07.900Z,33.55
2018-07-30T14:22:00.764Z,33.79
2018-07-30T14:23:00.691Z,33.82
2018-07-30T14:24:53.629Z,33.78
2018-07-30T14:25:53.544Z,33.76
2018-07-30T14:27:46.480Z,33.71
2018-07-30T14:28:46.385Z,33.58
2018-07-30T14:30:39.746Z,33.55
2018-07-30T14:31:39.655Z,33.44
2018-07-30T14:33:32.613Z,33.41
2018-07-30T14:34:32.592Z,33.54
2018-07-30T14:36:25.360Z,33.62
2018-07-30T14:37:25.257Z,33.76
2018-07-30T14:39:18.167Z,34.08
2018-07-30T14:40:18.033Z,34.03
2018-07-30T14:42:10.831Z,34.11
2018-07-30T14:43:10.865Z,34.35
2018-07-30T14:45:03.700Z,34.86
2018-07-30T14:46:03.703Z,35.16
2018-07-30T14:47:56.465Z,35.85
2018-07-30T14:48:56.416Z,36.04
2018-07-30T14:50:49.298Z,36.48
2018-07-30T14:51:49.333Z,36.54
2018-07-30T14:53:43.794Z,36.32
2018-07-30T14:54:43.917Z,36.19
2018-07-30T14:56:36.637Z,35.87
2018-07-30T14:57:36.556Z,35.73
2018-07-30T14:59:29.501Z,35.32
2018-07-30T15:00:29.431Z,35.14
2018-07-30T15:02:22.353Z,34.91
2018-07-30T15:03:22.250Z,34.87
2018-07-30T15:05:15.195Z,34.72
2018-07-30T15:06:15.139Z,34.67
2018-07-30T15:08:08.041Z,34.53
2018-07-30T15:09:07.966Z,34.37
2018-07-30T15:11:00.910Z,34.35
2018-07-30T15:12:00.801Z,34.29
2018-07-30T15:13:53.667Z,34.11
2018-07-30T15:14:53.555Z,34.18
2018-07-30T15:16:46.502Z,34.07
2018-07-30T15:17:46.403Z,34.03
2018-07-30T15:19:39.337Z,33.85
2018-07-30T15:20:39.254Z,33.84
2018-07-30T15:22:32.313Z,33.76
2018-07-30T15:23:32.209Z,33.81
2018-07-30T15:25:25.153Z,33.74
2018-07-30T15:26:25.084Z,33.74
2018-07-30T15:28:18.014Z,33.63
2018-07-30T15:29:17.928Z,33.64
2018-07-30T15:31:10.872Z,33.57
2018-07-30T15:32:10.766Z,33.55
2018-07-30T15:34:03.711Z,33.48
2018-07-30T15:35:03.628Z,33.60
2018-07-30T15:36:56.481Z,33.47
2018-07-30T15:37:56.389Z,33.54
2018-07-30T15:39:49.213Z,33.47
2018-07-30T15:40:49.121Z,33.49
2018-07-30T15:42:41.990Z,33.51
2018-07-30T15:43:41.868Z,33.84
2018-07-30T15:45:34.726Z,35.48
2018-07-30T15:46:34.619Z,36.25
2018-07-30T15:48:27.476Z,37.39
2018-07-30T15:49:27.373Z,38.04
2018-07-30T15:51:20.233Z,38.81
2018-07-30T15:52:20.188Z,39.17
2018-07-30T15:54:13.049Z,39.46
2018-07-30T15:55:13.024Z,39.74
2018-07-30T15:57:05.917Z,39.82
2018-07-30T15:58:05.823Z,39.98
2018-07-30T15:59:58.775Z,39.51
2018-07-30T16:00:58.730Z,39.40
2018-07-30T16:02:51.744Z,38.70
2018-07-30T16:03:51.638Z,38.60
2018-07-30T16:05:44.600Z,39.35
2018-07-30T16:06:44.482Z,39.65
2018-07-30T16:08:37.453Z,39.96
2018-07-30T16:09:37.329Z,40.49
2018-07-30T16:11:30.272Z,39.61
2018-07-30T16:12:30.205Z,38.88
2018-07-30T16:14:23.134Z,37.91
2018-07-30T16:15:23.036Z,37.27
2018-07-30T16:17:16.422Z,37.08
2018-07-30T16:18:16.333Z,36.82
2018-07-30T16:20:09.374Z,36.56
2018-07-30T16:21:09.258Z,36.44
2018-07-30T16:23:02.207Z,36.07
2018-07-30T16:24:02.129Z,35.84
2018-07-30T16:25:55.056Z,35.66
2018-07-30T16:26:54.957Z,35.75
2018-07-30T16:28:47.900Z,35.21
2018-07-30T16:29:47.820Z,34.94
2018-07-30T16:31:40.741Z,34.45
2018-07-30T16:32:40.675Z,34.11
2018-07-30T16:34:33.552Z,33.51
2018-07-30T16:35:33.415Z,33.35
2018-07-30T16:37:29.959Z,32.90
2018-07-30T16:38:26.705Z,32.94
2018-07-30T16:40:19.554Z,32.95
2018-07-30T16:41:19.424Z,32.85
2018-07-30T16:43:12.278Z,32.79
2018-07-30T16:44:12.353Z,32.72
2018-07-30T16:46:05.131Z,32.60
2018-07-30T16:47:05.107Z,32.46
2018-07-30T16:48:57.871Z,32.53
2018-07-30T16:49:57.828Z,32.54
2018-07-30T16:51:50.710Z,32.60
2018-07-30T16:52:50.636Z,32.72
2018-07-30T16:54:43.486Z,33.24
2018-07-30T16:55:43.370Z,34.20
2018-07-30T16:57:36.211Z,35.48
2018-07-30T16:58:36.884Z,35.32
2018-07-30T17:00:28.963Z,34.90
2018-07-30T17:01:28.889Z,34.62
2018-07-30T17:03:21.714Z,34.06
2018-07-30T17:04:22.046Z,33.93
2018-07-30T17:06:15.466Z,33.73
2018-07-30T17:07:15.393Z,33.64
2018-07-30T17:09:08.239Z,33.52
2018-07-30T17:10:08.144Z,33.44
2018-07-30T17:12:00.985Z,33.13
2018-07-30T17:13:00.905Z,33.06
2018-07-30T17:14:53.970Z,33.55
2018-07-30T17:15:53.643Z,33.45
2018-07-30T17:17:46.524Z,33.48
2018-07-30T17:18:46.394Z,33.32
2018-07-30T17:20:39.236Z,33.04
2018-07-30T17:21:39.147Z,32.91
2018-07-30T17:23:31.986Z,32.75
2018-07-30T17:24:31.936Z,32.70
2018-07-30T17:26:24.726Z,32.43
2018-07-30T17:27:24.638Z,32.45
2018-07-30T17:29:17.484Z,32.09
2018-07-30T17:30:17.396Z,32.05
2018-07-30T17:32:10.218Z,31.89
2018-07-30T17:33:10.136Z,31.90
2018-07-30T17:35:03.014Z,32.24
2018-07-30T17:36:02.896Z,32.11
2018-07-30T17:37:55.799Z,32.05
2018-07-30T17:38:55.703Z,31.89
2018-07-30T17:40:48.821Z,31.90
2018-07-30T17:41:48.752Z,31.86
2018-07-30T17:43:41.269Z,31.91
2018-07-30T17:44:41.453Z,31.82
2018-07-30T17:46:34.532Z,31.71
2018-07-30T17:47:34.422Z,31.60
2018-07-30T17:49:27.269Z,31.56
2018-07-30T17:50:27.147Z,31.59
2018-07-30T17:52:20.010Z,31.67
2018-07-30T17:53:19.903Z,31.70
2018-07-30T17:55:12.755Z,31.30
2018-07-30T17:56:12.649Z,31.29
2018-07-30T17:58:05.501Z,31.41
2018-07-30T17:59:05.413Z,31.89
2018-07-30T18:00:58.227Z,32.80
2018-07-30T18:01:58.160Z,33.12
2018-07-30T18:03:51.010Z,33.03
2018-07-30T18:04:50.902Z,33.12
2018-07-30T18:06:43.729Z,33.20
2018-07-30T18:07:43.648Z,33.27
2018-07-30T18:09:36.504Z,33.01
2018-07-30T18:10:36.413Z,32.92
2018-07-30T18:12:29.232Z,32.79
2018-07-30T18:13:29.156Z,32.54
2018-07-30T18:15:21.991Z,31.90
2018-07-30T18:16:21.930Z,31.79
2018-07-30T18:18:14.752Z,31.27
2018-07-30T18:19:14.658Z,31.12
2018-07-30T18:21:07.477Z,30.78
2018-07-30T18:22:07.402Z,30.74
2018-07-30T18:24:00.319Z,30.32
2018-07-30T18:25:00.158Z,30.17
2018-07-30T18:26:52.982Z,29.98
2018-07-30T18:27:52.901Z,29.89
2018-07-30T18:29:45.756Z,29.74
2018-07-30T18:30:45.655Z,29.71
2018-07-30T18:32:38.489Z,29.55